createdAt,value
2017-07-25T00:00:02.973Z,94.70
2017-07-25T00:04:49.569Z,94.30
2017-07-25T00:09:36.934Z,94.70
2017-07-25T00:14:23.597Z,94.70
2017-07-25T00:19:10.231Z,94.00
2017-07-25T00:23:56.861Z,94.00
2017-07-25T00:28:43.471Z,94.10
2017-07-25T00:33:30.128Z,94.10
2017-07-25T00:38:16.842Z,94.40
2017-07-25T00:43:04.236Z,94.10
2017-07-25T00:47:50.909Z,94.10
2017-07-25T00:52:37.557Z,94.50
2017-07-25T00:57:24.237Z,94.10
2017-07-25T01:02:11.604Z,94.30
2017-07-25T01:06:58.222Z,94.30
2017-07-25T01:11:44.844Z,94.10
2017-07-25T01:16:31.986Z,94.10
2017-07-25T01:21:18.623Z,93.90
2017-07-25T01:26:05.233Z,94.50
2017-07-25T01:30:51.884Z,94.40
2017-07-25T01:35:38.505Z,94.50
2017-07-25T01:40:25.134Z,94.50
2017-07-25T01:45:11.763Z,94.60
2017-07-25T01:49:59.134Z,94.30
2017-07-25T01:54:45.740Z,94.30
2017-07-25T01:59:32.357Z,94.20
2017-07-25T02:04:18.971Z,94.40
2017-07-25T02:09:05.633Z,94.00
2017-07-25T02:13:52.404Z,94.00
2017-07-25T02:18:39.779Z,94.10
2017-07-25T02:23:26.403Z,94.10
2017-07-25T02:28:13.021Z,94.40
2017-07-25T02:32:59.663Z,94.80
2017-07-25T02:37:46.322Z,94.60
2017-07-25T02:42:33.708Z,94.80
2017-07-25T02:47:20.350Z,94.80
2017-07-25T02:52:06.967Z,95.10
2017-07-25T02:56:53.666Z,94.70
2017-07-25T03:01:40.319Z,95.00
2017-07-25T03:06:26.974Z,94.70
2017-07-25T03:11:13.696Z,94.40
2017-07-25T03:16:00.337Z,94.10
2017-07-25T03:20:46.927Z,94.10
2017-07-25T03:25:34.482Z,94.00
2017-07-25T03:30:21.130Z,94.00
2017-07-25T03:35:14.597Z,94.60
2017-07-25T03:40:01.283Z,94.10
2017-07-25T03:44:48.665Z,94.30
2017-07-25T03:49:35.281Z,94.30
2017-07-25T03:54:21.910Z,94.00
2017-07-25T03:59:08.657Z,94.50
2017-07-25T04:03:55.277Z,94.10
2017-07-25T04:08:41.912Z,94.10
2017-07-25T04:13:28.520Z,94.10
2017-07-25T04:18:15.138Z,94.20
2017-07-25T04:23:01.744Z,93.90
2017-07-25T04:27:48.461Z,94.00
2017-07-25T04:32:35.954Z,93.80
2017-07-25T04:37:22.718Z,93.80
2017-07-25T04:42:09.339Z,94.10
2017-07-25T04:46:55.952Z,94.00
2017-07-25T04:51:43.213Z,93.90
2017-07-25T04:56:32.287Z,94.10
2017-07-25T05:01:18.952Z,94.10
2017-07-25T05:06:05.617Z,93.70
2017-07-25T05:10:52.302Z,93.50
2017-07-25T05:15:38.930Z,93.20
2017-07-25T05:20:25.580Z,93.60
2017-07-25T05:25:12.241Z,94.30
2017-07-25T05:29:59.614Z,94.70
2017-07-25T05:34:46.264Z,94.70
2017-07-25T05:39:32.910Z,94.70
2017-07-25T05:44:19.616Z,94.80
2017-07-25T05:49:06.233Z,94.80
2017-07-25T05:53:52.886Z,94.80
2017-07-25T05:58:40.244Z,94.60
2017-07-25T06:03:26.853Z,94.60
2017-07-25T06:08:13.549Z,94.30
2017-07-25T06:13:00.177Z,94.40
2017-07-25T06:17:47.555Z,93.60
2017-07-25T06:22:34.185Z,93.60
2017-07-25T06:27:20.946Z,93.20
2017-07-25T06:32:07.589Z,93.00
2017-07-25T06:36:54.956Z,93.20
